createdAt,value
2019-01-05T00:00:57.770Z,12.80
2019-01-05T00:03:49.395Z,14.17
2019-01-05T00:06:41.404Z,13.20
2019-01-05T00:09:40.553Z,12.23
2019-01-05T00:12:35.638Z,12.53
2019-01-05T00:15:32.316Z,12.67
2019-01-05T00:18:34.774Z,12.23
2019-01-05T00:21:30.915Z,11.33
2019-01-05T00:24:18.635Z,11.27
2019-01-05T00:27:21.870Z,10.43
2019-01-05T00:30:13.888Z,10.40
2019-01-05T00:33:01.482Z,10.73
2019-01-05T00:36:03.723Z,10.93
2019-01-05T00:39:25.282Z,10.50
2019-01-05T00:42:16.230Z,9.97
2019-01-05T00:45:25.339Z,11.20
2019-01-05T00:48:18.295Z,11.33
2019-01-05T00:51:18.120Z,11.77
2019-01-05T00:54:07.609Z,12.23
2019-01-05T00:56:59.419Z,12.07
2019-01-05T01:00:18.622Z,12.00
2019-01-05T01:03:45.153Z,11.73
2019-01-05T01:07:14.873Z,11.73
2019-01-05T01:10:18.070Z,12.83
2019-01-05T01:13:46.293Z,13.03
2019-01-05T01:17:13.785Z,12.63
2019-01-05T01:20:03.528Z,12.83
2019-01-05T01:22:58.476Z,14.53
2019-01-05T01:25:53.814Z,13.77
2019-01-05T01:28:52.446Z,22.10
2019-01-05T01:31:44.756Z,26.60
2019-01-05T01:34:37.004Z,31.77
2019-01-05T01:37:27.066Z,34.93
2019-01-05T01:40:32.487Z,32.80
2019-01-05T01:43:33.903Z,34.03
2019-01-05T01:46:26.817Z,33.57
2019-01-05T01:49:30.903Z,35.33
2019-01-05T01:52:31.128Z,34.60
2019-01-05T01:55:42.724Z,31.90
2019-01-05T01:58:32.014Z,31.13
2019-01-05T02:01:41.891Z,29.43
2019-01-05T02:04:40.842Z,29.77
2019-01-05T02:07:43.401Z,31.33
2019-01-05T02:10:36.506Z,30.43
2019-01-05T02:13:48.860Z,32.23
2019-01-05T02:16:40.795Z,30.20
2019-01-05T02:19:51.393Z,31.93
2019-01-05T02:23:18.575Z,26.37
2019-01-05T02:26:41.439Z,27.17
2019-01-05T02:30:31.780Z,28.70
2019-01-05T02:34:00.197Z,26.93
2019-01-05T02:37:47.872Z,28.57
2019-01-05T02:41:38.944Z,28.10
2019-01-05T02:45:16.769Z,28.83
2019-01-05T02:48:59.293Z,28.47
2019-01-05T02:52:25.355Z,28.23
2019-01-05T02:55:54.711Z,27.57
2019-01-05T02:59:33.191Z,28.93
2019-01-05T03:03:05.658Z,28.93
2019-01-05T03:06:25.464Z,28.20
2019-01-05T03:10:00.432Z,29.20
2019-01-05T03:13:22.339Z,29.67
2019-01-05T03:17:06.325Z,30.70
2019-01-05T03:20:54.670Z,31.40
2019-01-05T03:24:22.963Z,29.03
2019-01-05T03:27:46.662Z,30.13
2019-01-05T03:31:16.493Z,29.03
2019-01-05T03:34:53.132Z,27.93
2019-01-05T03:38:41.322Z,28.43
2019-01-05T03:42:12.270Z,28.13
2019-01-05T03:45:48.143Z,29.20
2019-01-05T03:49:41.787Z,27.93
2019-01-05T03:52:47.729Z,26.00
2019-01-05T03:56:24.105Z,28.03
2019-01-05T03:59:55.661Z,28.07
2019-01-05T04:03:22.919Z,30.03
2019-01-05T04:06:58.068Z,29.43
2019-01-05T04:10:29.377Z,28.60
2019-01-05T04:13:59.675Z,27.83
2019-01-05T04:17:42.946Z,29.33
2019-01-05T04:21:35.615Z,27.10
2019-01-05T04:25:01.192Z,27.10
2019-01-05T04:28:32.259Z,27.57
2019-01-05T04:32:09.801Z,27.07
2019-01-05T04:35:47.399Z,25.57
2019-01-05T04:39:27.226Z,23.47
2019-01-05T04:43:03.845Z,24.47
2019-01-05T04:46:44.864Z,24.40
2019-01-05T04:50:36.018Z,24.50
2019-01-05T04:54:09.484Z,25.67
2019-01-05T04:57:42.520Z,23.37
2019-01-05T05:01:21.796Z,23.37
2019-01-05T05:04:44.120Z,22.47
2019-01-05T05:08:29.496Z,20.73
2019-01-05T05:12:10.258Z,21.20
2019-01-05T05:15:40.258Z,20.90
2019-01-05T05:19:08.649Z,22.33
2019-01-05T05:22:32.322Z,23.20
2019-01-05T05:26:32.115Z,21.37
2019-01-05T05:30:17.867Z,23.10
2019-01-05T05:33:44.376Z,22.77
2019-01-05T05:37:04.101Z,24.73
2019-01-05T05:40:32.017Z,23.67
2019-01-05T05:44:11.078Z,24.07
2019-01-05T05:47:48.141Z,24.80
2019-01-05T05:51:35.008Z,24.03
2019-01-05T05:54:56.812Z,23.57
2019-01-05T05:58:26.256Z,23.47
2019-01-05T06:01:55.227Z,24.50
2019-01-05T06:05:14.508Z,23.93
2019-01-05T06:08:34.417Z,24.80
2019-01-05T06:11:56.190Z,24.43
2019-01-05T06:15:31.292Z,24.33
2019-01-05T06:18:55.581Z,23.63
2019-01-05T06:22:22.307Z,24.57
2019-01-05T06:26:11.869Z,22.40
2019-01-05T06:30:03.339Z,23.53
2019-01-05T06:33:46.959Z,23.23
2019-01-05T06:37:22.747Z,23.50
2019-01-05T06:40:50.770Z,21.67
2019-01-05T06:44:19.257Z,22.03
2019-01-05T06:47:49.391Z,23.00
2019-01-05T06:51:22.611Z,22.70
2019-01-05T06:54:55.137Z,22.63
2019-01-05T06:58:26.969Z,23.27
2019-01-05T07:02:15.483Z,22.07
2019-01-05T07:05:46.518Z,21.80
2019-01-05T07:09:19.289Z,21.97
2019-01-05T07:13:03.274Z,21.33
2019-01-05T07:20:16.582Z,29.57
2019-01-05T07:23:59.564Z,23.60
2019-01-05T07:27:22.041Z,27.10
2019-01-05T07:31:02.337Z,26.37
2019-01-05T07:34:35.357Z,24.60
2019-01-05T07:38:38.417Z,18.87
2019-01-05T07:42:02.411Z,20.70
2019-01-05T07:45:31.066Z,17.67
2019-01-05T07:49:04.102Z,22.90
2019-01-05T07:52:32.643Z,20.83
2019-01-05T07:56:00.161Z,19.03
2019-01-05T07:59:40.759Z,19.47
2019-01-05T08:03:24.832Z,20.90
2019-01-05T08:06:48.229Z,21.83
2019-01-05T08:10:32.086Z,19.60
2019-01-05T08:14:08.130Z,20.97
2019-01-05T08:18:06.503Z,18.60
2019-01-05T08:21:29.229Z,21.57
2019-01-05T08:25:09.495Z,14.43
2019-01-05T08:28:51.789Z,14.27
2019-01-05T08:32:36.748Z,18.13
2019-01-05T08:36:15.499Z,17.73
2019-01-05T08:39:51.708Z,18.90
2019-01-05T08:43:14.777Z,18.93
2019-01-05T08:46:57.075Z,21.60
2019-01-05T08:50:19.048Z,23.23
2019-01-05T08:54:09.960Z,21.03
2019-01-05T08:57:43.951Z,20.40
2019-01-05T09:01:03.361Z,18.50
2019-01-05T09:04:26.169Z,25.00
2019-01-05T09:07:52.863Z,24.73
2019-01-05T09:11:15.619Z,26.00
2019-01-05T09:14:54.153Z,31.53
2019-01-05T09:17:59.485Z,23.97
2019-01-05T09:21:47.229Z,28.23
2019-01-05T09:25:30.057Z,28.33
2019-01-05T09:29:04.104Z,28.77
2019-01-05T09:32:54.931Z,24.07
2019-01-05T09:36:25.096Z,23.63
2019-01-05T09:40:05.794Z,22.27
2019-01-05T09:43:57.481Z,22.00
2019-01-05T09:47:40.640Z,22.13
2019-01-05T09:51:10.966Z,25.17
2019-01-05T09:54:43.916Z,28.53
2019-01-05T09:58:16.955Z,23.87
2019-01-05T10:01:50.830Z,23.70
2019-01-05T10:05:39.183Z,23.50
2019-01-05T10:09:05.828Z,22.50
2019-01-05T10:12:48.734Z,20.37
2019-01-05T10:16:01.835Z,20.47
2019-01-05T10:19:21.916Z,20.80
2019-01-05T10:23:09.079Z,21.67
2019-01-05T10:26:36.605Z,21.60
2019-01-05T10:30:23.599Z,21.17
2019-01-05T10:33:49.459Z,21.17
2019-01-05T10:37:48.176Z,18.30
2019-01-05T10:40:51.935Z,19.80
2019-01-05T10:44:18.033Z,22.20
2019-01-05T10:47:50.924Z,23.13
2019-01-05T10:51:32.318Z,24.50
2019-01-05T10:55:09.714Z,23.40
2019-01-05T10:58:40.954Z,20.60
2019-01-05T11:02:26.291Z,19.57
2019-01-05T11:06:17.006Z,20.00
2019-01-05T11:09:38.773Z,18.30
2019-01-05T11:12:56.989Z,20.13
2019-01-05T11:16:22.399Z,22.00
2019-01-05T11:19:53.294Z,19.60
2019-01-05T11:23:29.832Z,19.73
2019-01-05T11:26:57.556Z,23.50
2019-01-05T11:30:21.176Z,23.60
2019-01-05T11:34:08.118Z,23.33
2019-01-05T11:37:34.781Z,23.20
2019-01-05T11:40:53.501Z,22.73
2019-01-05T11:44:30.967Z,22.40
2019-01-05T11:48:07.038Z,23.50
2019-01-05T11:51:43.051Z,24.23
2019-01-05T11:55:17.114Z,24.17
2019-01-05T11:58:53.433Z,22.93
2019-01-05T12:02:26.430Z,23.17
2019-01-05T12:06:00.605Z,22.80
2019-01-05T12:09:36.409Z,25.57
2019-01-05T12:13:06.704Z,23.50
2019-01-05T12:16:55.084Z,23.90
2019-01-05T12:20:25.340Z,24.27
2019-01-05T12:24:23.746Z,27.03
2019-01-05T12:28:12.969Z,23.70
2019-01-05T12:32:10.292Z,26.00
2019-01-05T12:35:43.423Z,27.40
2019-01-05T12:39:33.738Z,31.37
2019-01-05T12:42:59.463Z,22.03
2019-01-05T12:46:36.739Z,22.43
2019-01-05T12:49:56.268Z,22.20
2019-01-05T12:53:10.196Z,21.77
2019-01-05T12:56:54.084Z,31.00
2019-01-05T13:00:24.871Z,31.13
2019-01-05T13:04:00.434Z,27.53
2019-01-05T13:07:25.908Z,24.83
2019-01-05T13:11:09.333Z,22.77
2019-01-05T13:14:15.762Z,24.70
2019-01-05T13:17:47.889Z,25.67
2019-01-05T13:21:47.507Z,28.57
2019-01-05T13:25:35.062Z,28.13
2019-01-05T13:29:04.640Z,25.93
2019-01-05T13:32:43.013Z,27.13
2019-01-05T13:36:25.545Z,26.63
2019-01-05T13:40:03.435Z,27.03
2019-01-05T13:43:24.225Z,26.97
2019-01-05T13:47:06.520Z,26.93
2019-01-05T13:50:56.171Z,22.73
2019-01-05T13:54:08.907Z,26.90
2019-01-05T13:57:03.768Z,26.03
2019-01-05T13:59:51.867Z,24.97
2019-01-05T14:02:49.992Z,24.77
2019-01-05T14:05:39.364Z,22.77
2019-01-05T14:08:34.664Z,19.53
2019-01-05T14:11:28.862Z,19.67
2019-01-05T14:14:19.133Z,20.27
2019-01-05T14:17:07.072Z,21.70
2019-01-05T14:19:47.139Z,23.37
2019-01-05T14:22:35.522Z,25.97
2019-01-05T14:25:23.489Z,26.03
2019-01-05T14:28:10.841Z,25.17
2019-01-05T14:31:02.810Z,25.97
2019-01-05T14:33:49.643Z,24.60
2019-01-05T14:36:41.140Z,23.17
2019-01-05T14:39:28.327Z,23.40
2019-01-05T14:42:17.664Z,21.40
2019-01-05T14:45:12.120Z,23.27
2019-01-05T14:48:49.680Z,22.50
2019-01-05T14:51:38.982Z,22.60
2019-01-05T14:54:41.402Z,24.70
2019-01-05T14:57:41.677Z,31.60
2019-01-05T15:00:42.641Z,29.33
2019-01-05T15:03:37.384Z,30.40
2019-01-05T15:06:44.939Z,23.13
2019-01-05T15:09:31.994Z,20.97
2019-01-05T15:12:29.450Z,20.70
2019-01-05T15:18:19.792Z,20.87
2019-01-05T15:21:14.298Z,25.13
2019-01-05T15:24:02.841Z,24.00
2019-01-05T15:26:51.510Z,24.50
2019-01-05T15:29:40.971Z,24.23
2019-01-05T15:32:32.260Z,23.50
2019-01-05T15:35:26.704Z,22.97
2019-01-05T15:38:24.029Z,22.73
2019-01-05T15:41:25.966Z,23.83
2019-01-05T15:44:24.008Z,22.20
2019-01-05T15:47:16.150Z,20.53
2019-01-05T15:50:05.728Z,20.83
2019-01-05T15:52:53.483Z,19.87
2019-01-05T15:55:43.260Z,19.10
2019-01-05T15:58:33.432Z,19.23
2019-01-05T16:01:21.047Z,18.60
2019-01-05T16:04:27.189Z,19.50
2019-01-05T16:07:19.759Z,18.87
2019-01-05T16:10:28.492Z,19.97
2019-01-05T16:13:17.386Z,19.50
2019-01-05T16:16:07.469Z,19.37
2019-01-05T16:19:15.846Z,20.83
2019-01-05T16:22:10.888Z,20.40
2019-01-05T16:25:16.026Z,19.70
2019-01-05T16:28:19.885Z,21.73
2019-01-05T16:31:27.476Z,20.20
2019-01-05T16:34:16.086Z,20.50
2019-01-05T16:37:22.887Z,21.53
2019-01-05T16:40:11.589Z,20.47
2019-01-05T16:43:00.246Z,20.10
2019-01-05T16:45:51.930Z,20.03
2019-01-05T16:48:46.788Z,20.80
2019-01-05T16:51:35.756Z,21.57
2019-01-05T16:54:25.833Z,22.07
2019-01-05T16:57:23.601Z,20.37
2019-01-05T17:00:14.122Z,21.27
2019-01-05T17:03:10.745Z,21.77
2019-01-05T17:05:58.865Z,21.97
2019-01-05T17:08:47.432Z,22.53
2019-01-05T17:11:34.808Z,24.03
2019-01-05T17:14:25.693Z,23.47
2019-01-05T17:17:14.426Z,24.80
2019-01-05T17:20:01.598Z,26.17
2019-01-05T17:22:51.434Z,25.17
2019-01-05T17:25:52.397Z,25.10
2019-01-05T17:28:47.176Z,25.60
2019-01-05T17:31:51.290Z,25.07
2019-01-05T17:35:00.582Z,24.60
2019-01-05T17:37:50.681Z,25.17
2019-01-05T17:40:38.366Z,25.40
2019-01-05T17:43:40.977Z,26.67
2019-01-05T17:46:35.502Z,25.80
2019-01-05T17:49:35.930Z,24.93
2019-01-05T17:52:36.638Z,23.63
2019-01-05T17:55:31.028Z,24.47
2019-01-05T17:58:19.648Z,24.00
2019-01-05T18:01:09.010Z,24.77
2019-01-05T18:04:00.093Z,24.73
2019-01-05T18:06:58.490Z,23.90
2019-01-05T18:09:46.996Z,24.10
2019-01-05T18:12:35.355Z,25.23
2019-01-05T18:15:25.192Z,28.37
2019-01-05T18:18:29.428Z,26.80
2019-01-05T18:21:11.757Z,26.73
2019-01-05T18:24:02.035Z,28.57
2019-01-05T18:26:44.039Z,25.47
2019-01-05T18:29:40.659Z,26.07
2019-01-05T18:32:30.803Z,26.63
2019-01-05T18:35:21.371Z,25.83
2019-01-05T18:38:09.436Z,25.47
2019-01-05T18:41:01.081Z,25.10
2019-01-05T18:44:08.534Z,25.73
2019-01-05T18:46:58.426Z,26.10
2019-01-05T18:49:50.286Z,26.33
2019-01-05T18:52:37.780Z,26.57
2019-01-05T18:55:45.242Z,26.10
2019-01-05T18:58:34.282Z,26.77
2019-01-05T19:01:37.708Z,29.00
2019-01-05T19:04:26.378Z,28.53
2019-01-05T19:07:34.169Z,28.47
2019-01-05T19:10:16.441Z,29.00
2019-01-05T19:13:20.530Z,28.93
2019-01-05T19:16:13.207Z,29.73
2019-01-05T19:19:02.390Z,27.63
2019-01-05T19:21:45.849Z,28.37
2019-01-05T19:24:33.431Z,29.47
2019-01-05T19:27:20.379Z,28.33
2019-01-05T19:30:09.626Z,28.00
2019-01-05T19:33:17.519Z,29.23
2019-01-05T19:36:14.874Z,29.63
2019-01-05T19:39:15.123Z,30.50
2019-01-05T19:42:02.681Z,28.63
2019-01-05T19:44:51.972Z,27.90
2019-01-05T19:47:46.112Z,26.20
2019-01-05T19:50:38.167Z,25.40
2019-01-05T19:53:25.395Z,24.87
2019-01-05T19:56:13.508Z,24.40
2019-01-05T19:59:15.174Z,24.27
2019-01-05T20:02:03.067Z,22.30
2019-01-05T20:04:51.286Z,24.03
2019-01-05T20:07:38.340Z,24.77
2019-01-05T20:10:36.751Z,23.30
2019-01-05T20:13:25.346Z,23.90
2019-01-05T20:16:16.292Z,25.27
2019-01-05T20:19:08.263Z,25.07
2019-01-05T20:21:56.357Z,24.10
2019-01-05T20:24:47.656Z,23.20
2019-01-05T20:27:36.320Z,22.07
2019-01-05T20:30:20.693Z,23.27
2019-01-05T20:33:18.597Z,23.30
2019-01-05T20:36:05.701Z,22.00
2019-01-05T20:38:53.235Z,23.10
2019-01-05T20:41:42.059Z,25.10
2019-01-05T20:44:34.868Z,24.37
2019-01-05T20:47:31.548Z,22.10
2019-01-05T20:50:24.645Z,22.53
2019-01-05T20:53:12.654Z,23.77
2019-01-05T20:56:04.556Z,22.77
2019-01-05T20:58:54.107Z,24.50
2019-01-05T21:01:45.879Z,25.23
2019-01-05T21:04:52.001Z,26.53
2019-01-05T21:07:40.401Z,27.20
2019-01-05T21:10:36.810Z,26.87
2019-01-05T21:13:39.700Z,26.40
2019-01-05T21:16:29.276Z,26.43
2019-01-05T21:20:21.329Z,25.97
2019-01-05T21:23:24.236Z,24.07
2019-01-05T21:26:14.660Z,22.93
2019-01-05T21:29:20.888Z,23.73
2019-01-05T21:32:10.324Z,22.93
2019-01-05T21:35:17.948Z,24.57
2019-01-05T21:38:05.386Z,25.23
2019-01-05T21:41:00.334Z,26.60
2019-01-05T21:44:05.869Z,26.70
2019-01-05T21:47:12.523Z,26.60
2019-01-05T21:50:10.266Z,26.23
2019-01-05T21:53:03.981Z,26.90
2019-01-05T21:55:53.227Z,26.63
2019-01-05T21:58:56.752Z,26.77
2019-01-05T22:01:45.950Z,28.27
2019-01-05T22:04:36.390Z,27.43
2019-01-05T22:07:24.885Z,28.73
2019-01-05T22:10:13.853Z,29.43
2019-01-05T22:13:01.612Z,28.97
2019-01-05T22:15:50.298Z,28.67
2019-01-05T22:18:57.387Z,29.90
2019-01-05T22:21:46.032Z,28.70
2019-01-05T22:24:37.242Z,29.20
2019-01-05T22:27:24.855Z,28.47
2019-01-05T22:30:13.530Z,29.93
2019-01-05T22:32:56.786Z,29.07
2019-01-05T22:35:46.798Z,28.90
2019-01-05T22:38:36.469Z,29.30
2019-01-05T22:41:44.019Z,29.23
2019-01-05T22:44:32.717Z,27.77
2019-01-05T22:47:21.922Z,26.30
2019-01-05T22:50:20.013Z,25.83
2019-01-05T22:53:22.507Z,26.03
2019-01-05T22:56:29.490Z,26.33
2019-01-05T22:59:28.298Z,26.00
2019-01-05T23:02:18.117Z,28.27
2019-01-05T23:05:20.634Z,26.67
2019-01-05T23:08:10.194Z,28.20
2019-01-05T23:11:01.945Z,27.67
2019-01-05T23:13:52.755Z,28.33
2019-01-05T23:16:53.592Z,27.53
2019-01-05T23:19:41.267Z,29.53
2019-01-05T23:22:29.716Z,25.60
2019-01-05T23:25:29.474Z,25.70
2019-01-05T23:28:22.899Z,25.43
2019-01-05T23:31:12.370Z,26.57
2019-01-05T23:34:07.838Z,26.47
2019-01-05T23:37:03.313Z,24.13
2019-01-05T23:40:01.053Z,25.50
2019-01-05T23:42:48.520Z,23.07
2019-01-05T23:45:55.766Z,23.03
2019-01-05T23:48:53.533Z,22.77
2019-01-05T23:51:52.861Z,20.63
2019-01-05T23:54:43.763Z,22.73
2019-01-05T23:57:43.762Z,23.10
